createdAt,value
2023-04-12T00:02:20.106Z,1.90
2023-04-12T00:04:55.729Z,1.50
2023-04-12T00:07:33.526Z,1.50
2023-04-12T00:10:07.124Z,1.43
2023-04-12T00:12:46.471Z,1.80
2023-04-12T00:15:14.495Z,2.07
2023-04-12T00:17:43.165Z,1.50
2023-04-12T00:20:15.567Z,2.07
2023-04-12T00:22:47.940Z,1.67
2023-04-12T00:25:25.906Z,1.97
2023-04-12T00:28:04.889Z,1.80
2023-04-12T00:30:34.893Z,1.43
2023-04-12T00:33:14.979Z,1.87
2023-04-12T00:35:44.666Z,1.63
2023-04-12T00:38:25.215Z,1.60
2023-04-12T00:40:57.753Z,2.10
2023-04-12T00:43:28.094Z,1.80
2023-04-12T00:45:58.620Z,1.40
2023-04-12T00:48:29.372Z,1.93
2023-04-12T00:50:57.831Z,1.37
2023-04-12T00:53:32.576Z,1.93
2023-04-12T00:56:12.538Z,1.63
2023-04-12T00:58:41.677Z,1.70
2023-04-12T01:01:20.418Z,1.43
2023-04-12T01:03:48.949Z,1.40
2023-04-12T01:06:27.997Z,1.30
2023-04-12T01:09:10.953Z,1.60
2023-04-12T01:14:33.191Z,1.40
2023-04-12T01:17:05.923Z,1.67
2023-04-12T01:20:00.268Z,1.50
2023-04-12T01:22:48.217Z,1.50
2023-04-12T01:25:41.759Z,1.60
2023-04-12T01:28:19.994Z,1.20
2023-04-12T01:30:57.711Z,1.97
2023-04-12T01:33:35.669Z,1.27
2023-04-12T01:36:29.076Z,1.80
2023-04-12T01:39:02.108Z,1.40
2023-04-12T01:41:36.625Z,2.17
2023-04-12T01:44:08.034Z,1.90
2023-04-12T01:46:38.833Z,1.57
2023-04-12T01:49:08.768Z,1.40
2023-04-12T01:51:50.578Z,1.30
2023-04-12T01:54:22.752Z,1.57
2023-04-12T01:56:55.918Z,1.60
2023-04-12T01:59:32.588Z,1.83
2023-04-12T02:02:05.576Z,1.40
2023-04-12T02:04:35.723Z,1.73
2023-04-12T02:07:07.104Z,1.90
2023-04-12T02:09:37.847Z,1.70
2023-04-12T02:12:05.992Z,2.23
2023-04-12T02:14:38.025Z,1.40
2023-04-12T02:17:06.182Z,2.27
2023-04-12T02:19:33.819Z,1.80
2023-04-12T02:22:05.865Z,2.63
2023-04-12T02:24:36.469Z,1.97
2023-04-12T02:27:05.448Z,1.87
2023-04-12T02:29:33.674Z,1.90
2023-04-12T02:32:07.944Z,2.27
2023-04-12T02:34:36.616Z,2.37
2023-04-12T02:37:07.104Z,2.03
2023-04-12T02:39:38.851Z,2.43
2023-04-12T02:42:10.369Z,2.53
2023-04-12T02:44:38.967Z,2.53
2023-04-12T02:47:08.754Z,2.40
2023-04-12T02:49:36.400Z,1.93
2023-04-12T02:52:06.400Z,2.80
2023-04-12T02:54:36.850Z,3.13
2023-04-12T02:57:04.842Z,2.50
2023-04-12T02:59:35.531Z,1.93
2023-04-12T03:02:03.408Z,2.57
2023-04-12T03:04:34.825Z,2.27
2023-04-12T03:07:02.530Z,2.10
2023-04-12T03:09:32.268Z,2.23
2023-04-12T03:12:01.380Z,2.20
2023-04-12T03:14:34.151Z,2.17
2023-04-12T03:17:02.102Z,2.47
2023-04-12T03:19:35.252Z,2.60
2023-04-12T03:22:07.654Z,2.10
2023-04-12T03:24:39.509Z,2.40
2023-04-12T03:27:09.847Z,2.13
2023-04-12T03:29:38.600Z,2.10
2023-04-12T03:32:09.809Z,2.13
2023-04-12T03:34:37.657Z,2.23
2023-04-12T03:37:09.260Z,2.00
2023-04-12T03:39:37.360Z,2.03
2023-04-12T03:42:05.111Z,2.30
2023-04-12T03:44:34.063Z,2.10
2023-04-12T03:47:03.119Z,3.37
2023-04-12T03:49:43.492Z,2.27
2023-04-12T03:52:13.500Z,2.10
2023-04-12T03:54:42.139Z,1.90
2023-04-12T03:57:11.124Z,2.50
2023-04-12T03:59:38.773Z,2.17
2023-04-12T04:02:19.841Z,2.87
2023-04-12T04:04:47.908Z,1.83
2023-04-12T04:07:18.573Z,2.87
2023-04-12T04:09:49.239Z,2.50
2023-04-12T04:12:17.211Z,2.60
2023-04-12T04:14:45.179Z,2.03
2023-04-12T04:17:12.889Z,2.20
2023-04-12T04:19:41.251Z,1.90
2023-04-12T04:22:11.675Z,2.40
2023-04-12T04:24:41.437Z,2.53
2023-04-12T04:27:09.368Z,2.50
2023-04-12T04:29:46.271Z,3.13
2023-04-12T04:32:14.684Z,2.17
2023-04-12T04:34:43.445Z,2.70
2023-04-12T04:37:12.639Z,2.67
2023-04-12T04:39:45.610Z,2.63
2023-04-12T04:42:13.314Z,2.70
2023-04-12T04:44:40.927Z,3.13
2023-04-12T04:47:08.651Z,2.30
2023-04-12T04:49:38.284Z,2.10
2023-04-12T04:52:09.406Z,2.57
2023-04-12T04:54:42.610Z,2.10
2023-04-12T04:57:15.020Z,2.20
2023-04-12T04:59:43.796Z,2.63
2023-04-12T05:02:11.915Z,3.40
2023-04-12T05:04:39.905Z,2.37
2023-04-12T05:07:08.519Z,2.80
2023-04-12T05:09:37.821Z,2.23
2023-04-12T05:12:06.068Z,1.87
2023-04-12T05:14:51.437Z,1.77
2023-04-12T05:17:24.278Z,2.20
2023-04-12T05:19:53.103Z,2.47
2023-04-12T05:22:22.414Z,2.30
2023-04-12T05:24:53.963Z,3.00
2023-04-12T05:27:23.235Z,2.10
2023-04-12T05:29:54.714Z,2.03
2023-04-12T05:32:26.583Z,2.03
2023-04-12T05:35:01.841Z,2.90
2023-04-12T05:37:29.595Z,2.43
2023-04-12T05:40:03.395Z,2.40
2023-04-12T05:42:31.400Z,2.17
2023-04-12T05:45:01.384Z,2.60
2023-04-12T05:47:29.332Z,3.03
2023-04-12T05:50:06.884Z,2.50
2023-04-12T05:52:46.573Z,2.40
2023-04-12T05:55:14.276Z,2.27
2023-04-12T06:01:20.305Z,2.50
2023-04-12T06:03:49.655Z,2.30
2023-04-12T06:06:22.817Z,2.33
2023-04-12T06:09:09.522Z,2.37
2023-04-12T06:11:41.262Z,3.20
2023-04-12T06:14:35.774Z,2.40
2023-04-12T06:17:09.827Z,2.40
2023-04-12T06:19:39.430Z,3.10
2023-04-12T06:22:16.174Z,2.70
2023-04-12T06:24:45.256Z,2.40
2023-04-12T06:27:39.376Z,2.07
2023-04-12T06:30:13.985Z,2.20
2023-04-12T06:32:44.687Z,2.33
2023-04-12T06:35:15.522Z,2.50
2023-04-12T06:40:26.139Z,2.47
2023-04-12T06:42:55.537Z,2.33
2023-04-12T06:45:26.487Z,2.40
2023-04-12T06:47:59.554Z,1.90
2023-04-12T06:50:33.022Z,2.73
2023-04-12T06:53:08.335Z,2.30
2023-04-12T06:55:37.132Z,2.00
2023-04-12T06:58:26.179Z,1.80
2023-04-12T07:00:54.835Z,2.00
2023-04-12T07:03:34.717Z,2.33
2023-04-12T07:06:14.070Z,1.90
2023-04-12T07:08:52.104Z,1.57
2023-04-12T07:11:22.331Z,1.93
2023-04-12T07:14:01.663Z,1.97
2023-04-12T07:16:43.428Z,1.57
2023-04-12T07:19:17.688Z,2.07
2023-04-12T07:22:12.520Z,1.50
2023-04-12T07:24:45.599Z,1.60
2023-04-12T07:27:13.674Z,1.67
2023-04-12T07:29:42.670Z,1.40
2023-04-12T07:32:12.372Z,1.60
2023-04-12T07:34:58.475Z,1.50
2023-04-12T07:37:32.273Z,1.50
2023-04-12T07:40:23.850Z,1.83
2023-04-12T07:45:46.564Z,1.60
2023-04-12T07:48:15.453Z,1.40
2023-04-12T07:50:44.488Z,1.67
2023-04-12T07:53:22.884Z,1.37
2023-04-12T07:55:51.945Z,1.70
2023-04-12T07:58:24.911Z,2.47
2023-04-12T08:01:01.462Z,1.63
2023-04-12T08:03:38.444Z,1.53
2023-04-12T08:06:31.675Z,1.60
2023-04-12T08:09:09.063Z,1.40
2023-04-12T08:11:44.464Z,1.30
2023-04-12T08:17:07.622Z,1.37
2023-04-12T08:19:41.940Z,1.10
2023-04-12T08:22:23.098Z,1.03
2023-04-12T08:24:55.817Z,1.10
2023-04-12T08:27:40.618Z,2.27
2023-04-12T08:30:17.461Z,1.47
2023-04-12T08:32:46.651Z,1.07
2023-04-12T08:35:20.451Z,1.60
2023-04-12T08:38:14.117Z,1.40
2023-04-12T08:40:52.142Z,1.57
2023-04-12T08:43:37.811Z,1.47
2023-04-12T08:46:12.140Z,1.30
2023-04-12T08:48:45.527Z,1.20
2023-04-12T08:51:17.038Z,1.13
2023-04-12T08:54:01.278Z,1.83
2023-04-12T08:56:33.381Z,1.13
2023-04-12T08:59:07.978Z,1.23
2023-04-12T09:02:05.809Z,1.20
2023-04-12T09:04:55.012Z,1.53
2023-04-12T09:10:38.763Z,1.40
2023-04-12T09:13:07.418Z,1.00
2023-04-12T09:15:36.691Z,1.23
2023-04-12T09:18:09.688Z,1.80
2023-04-12T09:20:43.466Z,1.30
2023-04-12T09:23:19.272Z,2.10
2023-04-12T09:25:54.839Z,1.17
2023-04-12T09:28:31.860Z,1.40
2023-04-12T09:31:20.941Z,1.60
2023-04-12T09:33:50.770Z,1.43
2023-04-12T09:36:19.196Z,1.53
2023-04-12T09:39:05.678Z,1.30
2023-04-12T09:41:36.694Z,1.40
2023-04-12T09:44:14.654Z,1.77
2023-04-12T09:46:58.138Z,1.60
2023-04-12T09:49:40.344Z,1.87
2023-04-12T09:52:14.493Z,1.50
2023-04-12T09:54:51.741Z,1.70
2023-04-12T09:57:32.516Z,2.60
2023-04-12T10:00:09.269Z,1.50
2023-04-12T10:02:46.686Z,1.93
2023-04-12T10:05:21.730Z,2.17
2023-04-12T10:10:30.992Z,1.73
2023-04-12T10:13:17.498Z,1.77
2023-04-12T10:16:06.084Z,2.00
2023-04-12T10:18:51.642Z,2.10
2023-04-12T10:21:21.772Z,2.00
2023-04-12T10:23:59.517Z,2.20
2023-04-12T10:26:30.575Z,2.33
2023-04-12T10:29:38.722Z,2.60
2023-04-12T10:32:35.317Z,2.30
2023-04-12T10:35:06.310Z,2.90
2023-04-12T10:38:09.999Z,2.50
2023-04-12T10:40:40.226Z,2.80
2023-04-12T10:43:29.799Z,2.20
2023-04-12T10:46:04.398Z,2.23
2023-04-12T10:48:44.546Z,2.13
2023-04-12T10:51:22.790Z,2.33
2023-04-12T10:53:54.575Z,1.90
2023-04-12T10:56:56.398Z,2.50
2023-04-12T10:59:37.422Z,3.00
2023-04-12T11:02:15.296Z,2.50
2023-04-12T11:05:35.619Z,2.97
2023-04-12T11:08:14.277Z,3.30
2023-04-12T11:10:56.012Z,3.30
2023-04-12T11:13:24.690Z,2.90
2023-04-12T11:16:00.030Z,2.70
2023-04-12T11:18:28.749Z,2.83
2023-04-12T11:21:00.023Z,3.67
2023-04-12T11:23:29.741Z,2.60
2023-04-12T11:26:04.001Z,2.50
2023-04-12T11:28:35.513Z,2.60
2023-04-12T11:31:04.429Z,2.90
2023-04-12T11:33:34.838Z,2.67
2023-04-12T11:36:10.326Z,2.73
2023-04-12T11:38:42.964Z,2.30
2023-04-12T11:41:13.839Z,2.40
2023-04-12T11:43:48.495Z,2.50
2023-04-12T11:46:18.685Z,2.80
2023-04-12T11:48:56.813Z,2.77
2023-04-12T11:51:32.324Z,2.93
2023-04-12T11:54:03.300Z,2.60
2023-04-12T11:56:34.297Z,2.50
2023-04-12T11:59:05.156Z,2.87
2023-04-12T12:01:39.657Z,2.20
2023-04-12T12:04:09.108Z,2.23
2023-04-12T12:06:50.010Z,2.67
2023-04-12T12:09:22.085Z,2.00
2023-04-12T12:11:49.909Z,2.20
2023-04-12T12:14:20.416Z,2.47
2023-04-12T12:16:56.931Z,2.00
2023-04-12T12:19:32.957Z,2.30
2023-04-12T12:22:19.282Z,2.23
2023-04-12T12:24:51.296Z,2.00
2023-04-12T12:27:24.047Z,2.20
2023-04-12T12:29:53.844Z,2.37
2023-04-12T12:32:24.404Z,2.20
2023-04-12T12:34:55.746Z,2.40
2023-04-12T12:37:27.456Z,2.93
2023-04-12T12:40:16.845Z,1.70
2023-04-12T12:42:49.926Z,2.07
2023-04-12T12:45:20.075Z,2.33
2023-04-12T12:47:55.793Z,2.80
2023-04-12T12:50:34.245Z,1.67
2023-04-12T12:53:06.789Z,3.00
2023-04-12T12:55:37.547Z,2.00
2023-04-12T12:58:08.646Z,2.10
2023-04-12T13:00:37.513Z,1.83
2023-04-12T13:03:06.661Z,2.40
2023-04-12T13:05:39.951Z,1.97
2023-04-12T13:08:22.671Z,2.10
2023-04-12T13:10:58.137Z,1.90
2023-04-12T13:13:29.158Z,1.73
2023-04-12T13:16:01.617Z,1.83
2023-04-12T13:18:35.342Z,1.93
2023-04-12T13:21:11.241Z,1.87
2023-04-12T13:23:43.505Z,2.17
2023-04-12T13:26:17.816Z,1.77
2023-04-12T13:28:48.352Z,2.07
2023-04-12T13:31:27.146Z,1.90
2023-04-12T13:33:57.297Z,2.40
2023-04-12T13:36:47.581Z,2.17
2023-04-12T13:45:12.255Z,2.40
2023-04-12T13:47:41.318Z,2.10
2023-04-12T13:50:14.319Z,2.33
2023-04-12T13:52:42.265Z,1.80
2023-04-12T13:55:11.862Z,1.83
2023-04-12T13:57:40.886Z,1.80
2023-04-12T14:00:14.705Z,1.80
2023-04-12T14:03:00.741Z,1.57
2023-04-12T14:05:36.043Z,1.60
2023-04-12T14:08:04.393Z,1.53
2023-04-12T14:10:34.209Z,1.53
2023-04-12T14:13:05.945Z,1.57
2023-04-12T14:15:35.613Z,1.33
2023-04-12T14:18:04.635Z,1.80
2023-04-12T14:20:33.691Z,2.30
2023-04-12T14:23:05.721Z,1.53
2023-04-12T14:25:42.914Z,1.43
2023-04-12T14:28:16.607Z,1.70
2023-04-12T14:30:45.090Z,2.30
2023-04-12T14:33:13.204Z,1.70
2023-04-12T14:35:47.066Z,1.60
2023-04-12T14:38:14.932Z,1.57
2023-04-12T14:40:44.051Z,1.67
2023-04-12T14:43:11.954Z,1.40
2023-04-12T14:45:39.592Z,1.53
2023-04-12T14:48:17.155Z,2.07
2023-04-12T14:50:44.779Z,1.40
2023-04-12T14:53:14.009Z,1.50
2023-04-12T14:55:41.663Z,1.63
2023-04-12T14:58:13.470Z,1.47
2023-04-12T15:00:41.493Z,1.27
2023-04-12T15:03:10.013Z,1.40
2023-04-12T15:05:38.195Z,1.40
2023-04-12T15:08:06.487Z,1.17
2023-04-12T15:10:34.677Z,1.10
2023-04-12T15:15:54.324Z,1.27
2023-04-12T15:18:22.041Z,1.40
2023-04-12T15:20:49.748Z,1.10
2023-04-12T15:23:20.468Z,1.27
2023-04-12T15:25:48.727Z,1.10
2023-04-12T15:28:23.017Z,0.90
2023-04-12T15:30:52.330Z,1.03
2023-04-12T15:33:20.729Z,1.10
2023-04-12T15:35:49.795Z,0.87
2023-04-12T15:38:21.925Z,1.10
2023-04-12T15:40:56.179Z,1.00
2023-04-12T15:43:26.455Z,0.90
2023-04-12T15:45:56.252Z,0.97
2023-04-12T15:48:25.981Z,1.00
2023-04-12T15:50:57.670Z,1.30
2023-04-12T15:53:27.704Z,1.00
2023-04-12T15:55:55.963Z,1.10
2023-04-12T15:58:30.925Z,1.10
2023-04-12T16:01:00.601Z,1.03
2023-04-12T16:03:31.683Z,0.90
2023-04-12T16:05:59.728Z,0.90
2023-04-12T16:08:27.451Z,0.97
2023-04-12T16:10:55.172Z,0.90
2023-04-12T16:13:22.925Z,1.37
2023-04-12T16:15:52.190Z,0.90
2023-04-12T16:18:24.481Z,0.70
2023-04-12T16:20:52.706Z,0.80
2023-04-12T16:23:20.308Z,1.03
2023-04-12T16:25:49.103Z,0.90
2023-04-12T16:28:23.716Z,0.90
2023-04-12T16:30:51.770Z,0.70
2023-04-12T16:33:25.303Z,0.90
2023-04-12T16:35:53.067Z,0.90
2023-04-12T16:38:20.839Z,0.70
2023-04-12T16:40:51.088Z,0.80
2023-04-12T16:46:08.843Z,0.70
2023-04-12T16:48:42.554Z,0.80
2023-04-12T16:51:13.897Z,0.80
2023-04-12T16:53:49.100Z,0.70
2023-04-12T16:56:23.321Z,0.80
2023-04-12T16:58:51.960Z,0.70
2023-04-12T17:01:33.843Z,0.80
2023-04-12T17:04:06.244Z,0.63
2023-04-12T17:06:34.527Z,0.87
2023-04-12T17:09:22.562Z,0.90
2023-04-12T17:11:51.132Z,0.77
2023-04-12T17:14:29.809Z,1.00
2023-04-12T17:17:07.189Z,0.80
2023-04-12T17:22:44.003Z,1.00
2023-04-12T17:25:18.858Z,1.00
2023-04-12T17:27:54.045Z,0.80
2023-04-12T17:30:22.618Z,1.17
2023-04-12T17:32:59.406Z,1.10
2023-04-12T17:38:37.318Z,0.83
2023-04-12T17:41:09.286Z,0.90
2023-04-12T17:43:37.721Z,0.80
2023-04-12T17:46:10.259Z,1.00
2023-04-12T17:48:37.968Z,0.70
2023-04-12T17:51:17.943Z,0.80
2023-04-12T17:53:45.971Z,0.90
2023-04-12T17:56:13.888Z,0.83
2023-04-12T17:58:50.197Z,1.00
2023-04-12T18:01:18.325Z,0.70
2023-04-12T18:03:48.963Z,0.90
2023-04-12T18:06:47.942Z,1.00
2023-04-12T18:11:58.639Z,0.90
2023-04-12T18:14:36.337Z,0.83
2023-04-12T18:17:07.334Z,1.00
2023-04-12T18:19:37.240Z,0.90
2023-04-12T18:22:20.429Z,1.00
2023-04-12T18:25:03.063Z,0.90
2023-04-12T18:27:33.863Z,1.30
2023-04-12T18:30:08.192Z,1.30
2023-04-12T18:32:46.070Z,1.47
2023-04-12T18:35:15.228Z,2.70
2023-04-12T18:37:46.821Z,4.87
2023-04-12T18:40:19.316Z,2.67
2023-04-12T18:42:48.422Z,6.93
2023-04-12T18:45:16.533Z,1.47
2023-04-12T18:47:44.761Z,5.27
2023-04-12T18:50:24.422Z,7.20
2023-04-12T18:53:01.694Z,1.17
2023-04-12T18:55:31.997Z,2.23
2023-04-12T18:58:01.098Z,4.70
2023-04-12T19:03:16.354Z,0.90
2023-04-12T19:05:49.917Z,1.20
2023-04-12T19:08:23.412Z,1.20
2023-04-12T19:10:52.985Z,0.80
2023-04-12T19:13:22.874Z,0.90
2023-04-12T19:15:51.873Z,1.07
2023-04-12T19:18:20.461Z,0.80
2023-04-12T19:21:00.743Z,0.80
2023-04-12T19:23:38.130Z,1.27
2023-04-12T19:26:08.357Z,0.80
2023-04-12T19:32:00.377Z,0.80
2023-04-12T19:37:27.354Z,1.00
2023-04-12T19:40:01.546Z,0.80
2023-04-12T19:42:34.526Z,0.90
2023-04-12T19:47:46.261Z,1.00
2023-04-12T19:50:19.664Z,0.83
2023-04-12T19:52:56.474Z,0.73
2023-04-12T19:55:25.176Z,1.00
2023-04-12T20:00:58.457Z,0.83
2023-04-12T20:03:35.355Z,1.00
2023-04-12T20:06:29.320Z,1.20
2023-04-12T20:09:15.768Z,1.00
2023-04-12T20:11:48.258Z,1.13
2023-04-12T20:14:19.083Z,1.20
2023-04-12T20:17:25.451Z,1.00
2023-04-12T20:20:10.404Z,1.10
2023-04-12T20:22:52.326Z,0.90
2023-04-12T20:30:51.271Z,0.93
2023-04-12T20:33:30.822Z,1.20
2023-04-12T20:36:09.998Z,1.00
2023-04-12T20:38:38.516Z,1.30
2023-04-12T20:41:22.097Z,1.10
2023-04-12T20:43:56.527Z,1.10
2023-04-12T20:46:40.711Z,1.07
2023-04-12T20:49:17.939Z,1.17
2023-04-12T20:52:01.389Z,1.03
2023-04-12T20:54:41.019Z,0.90
2023-04-12T20:57:12.539Z,1.00
2023-04-12T21:02:25.291Z,1.03
2023-04-12T21:04:58.789Z,1.10
2023-04-12T21:07:31.877Z,1.10
2023-04-12T21:10:02.503Z,0.97
2023-04-12T21:12:32.605Z,1.17
2023-04-12T21:15:06.701Z,1.13
2023-04-12T21:20:25.062Z,1.00
2023-04-12T21:23:02.408Z,1.20
2023-04-12T21:25:39.830Z,1.10
2023-04-12T21:31:40.047Z,0.90
2023-04-12T21:34:24.444Z,1.27
2023-04-12T21:36:54.302Z,0.90
2023-04-12T21:39:24.777Z,1.00
2023-04-12T21:41:52.382Z,0.80
2023-04-12T21:44:29.581Z,1.07
2023-04-12T21:46:57.244Z,1.03
2023-04-12T21:49:30.692Z,0.80
2023-04-12T21:51:59.130Z,1.03
2023-04-12T21:54:29.468Z,1.07
2023-04-12T21:56:58.747Z,1.10
2023-04-12T21:59:26.550Z,0.93
2023-04-12T22:01:54.783Z,0.90
2023-04-12T22:04:23.489Z,1.07
2023-04-12T22:06:52.815Z,1.00
2023-04-12T22:09:20.419Z,1.20
2023-04-12T22:11:52.400Z,1.13
2023-04-12T22:14:21.555Z,1.10
2023-04-12T22:16:52.992Z,1.20
2023-04-12T22:19:20.683Z,1.20
2023-04-12T22:21:49.133Z,1.40
2023-04-12T22:24:16.916Z,1.10
2023-04-12T22:26:44.705Z,1.53
2023-04-12T22:29:17.626Z,0.97
2023-04-12T22:31:46.904Z,1.07
2023-04-12T22:34:15.218Z,0.90
2023-04-12T22:36:43.000Z,0.90
2023-04-12T22:39:17.337Z,1.10
2023-04-12T22:41:49.698Z,0.90
2023-04-12T22:44:19.066Z,1.10
2023-04-12T22:46:48.194Z,0.80
2023-04-12T22:49:16.985Z,1.03
2023-04-12T22:51:44.876Z,1.00
2023-04-12T22:54:13.102Z,1.10
2023-04-12T22:56:45.143Z,0.80
2023-04-12T22:59:14.650Z,0.90
2023-04-12T23:01:44.790Z,1.00
2023-04-12T23:04:12.818Z,1.00
2023-04-12T23:06:44.002Z,1.57
2023-04-12T23:09:13.382Z,0.90
2023-04-12T23:11:45.125Z,0.70
2023-04-12T23:14:12.843Z,0.97
2023-04-12T23:16:47.220Z,0.90
2023-04-12T23:19:16.618Z,1.00
2023-04-12T23:21:45.274Z,0.97
2023-04-12T23:24:15.525Z,1.10
2023-04-12T23:26:45.259Z,0.70
2023-04-12T23:29:13.875Z,0.83
2023-04-12T23:31:43.021Z,0.80
2023-04-12T23:34:11.272Z,0.87
2023-04-12T23:36:39.178Z,0.80
2023-04-12T23:39:09.334Z,0.87
2023-04-12T23:41:37.343Z,0.90
2023-04-12T23:44:07.444Z,0.70
2023-04-12T23:46:35.462Z,0.90
2023-04-12T23:49:05.247Z,0.90
2023-04-12T23:51:32.960Z,0.87
2023-04-12T23:54:01.227Z,0.80
2023-04-12T23:56:32.522Z,0.87
2023-04-12T23:59:00.623Z,0.80
